Time;durP1;ratioP1;P1;durP2;ratioP2;P2;SDS_P1;SDS_P2;PMS_P1;PMS_P2;Temp;Humidity;BMP_temperature;BMP_pressure;BME280_temperature;BME280_humidity;BME280_pressure;Samples;Min_cycle;Max_cycle;Signal;HPM_P1;HPM_P2
2022/02/18 00:01:58;;;;;;;23.95;4.15;;;8.50;1.00;;;;;;7361153;19;20027;-61
2022/02/18 00:04:28;;;;;;;17.25;4.05;;;8.50;1.00;;;;;;7357888;19;20793;-60
2022/02/18 00:06:58;;;;;;;19.90;4.03;;;8.50;1.00;;;;;;7359915;19;20081;-60
2022/02/18 00:09:30;;;;;;;19.05;4.47;;;8.30;1.00;;;;;;7355927;19;20101;-60
2022/02/18 00:12:00;;;;;;;15.10;4.32;;;8.20;1.00;;;;;;7360971;19;20078;-61
2022/02/18 00:14:30;;;;;;;19.60;3.78;;;8.10;1.00;;;;;;7379237;19;20470;-61
2022/02/18 00:17:00;;;;;;;16.65;4.82;;;8.00;1.00;;;;;;7368542;19;20010;-61
2022/02/18 00:19:29;;;;;;;18.20;3.85;;;7.90;1.00;;;;;;7361214;19;20601;-61
2022/02/18 00:21:59;;;;;;;25.10;4.25;;;7.90;1.00;;;;;;7367800;19;20537;-61
2022/02/18 00:24:32;;;;;;;20.48;4.15;;;7.80;1.00;;;;;;7363955;19;20534;-61
2022/02/18 00:27:02;;;;;;;20.02;3.67;;;7.80;1.00;;;;;;7366372;19;20106;-62
2022/02/18 00:29:32;;;;;;;19.70;3.63;;;7.80;1.00;;;;;;7383085;19;20018;-62
2022/02/18 00:32:07;;;;;;;17.48;5.20;;;7.90;1.00;;;;;;7367335;19;20077;-61
2022/02/18 00:34:38;;;;;;;16.60;4.38;;;7.90;1.00;;;;;;7364886;19;20007;-61
2022/02/18 00:37:08;;;;;;;23.38;5.47;;;7.90;1.00;;;;;;7369172;19;20486;-61
2022/02/18 00:39:41;;;;;;;20.42;5.22;;;7.90;1.00;;;;;;7361848;19;20017;-61
2022/02/18 00:42:10;;;;;;;18.77;3.90;;;7.90;1.00;;;;;;7366854;19;20014;-61
2022/02/18 00:44:42;;;;;;;22.35;6.03;;;8.00;1.00;;;;;;7386138;19;20007;-61
2022/02/18 00:47:12;;;;;;;17.73;3.75;;;8.00;1.00;;;;;;7369331;19;20551;-61
2022/02/18 00:49:42;;;;;;;19.50;3.97;;;8.20;1.00;;;;;;7364158;19;20010;-61
2022/02/18 00:52:12;;;;;;;22.95;4.65;;;8.20;1.00;;;;;;7368183;19;20023;-61
2022/02/18 00:54:45;;;;;;;23.73;3.95;;;8.20;1.00;;;;;;7363698;19;20013;-61
2022/02/18 00:57:16;;;;;;;21.58;4.40;;;8.30;1.00;;;;;;7369221;19;20027;-61
2022/02/18 00:59:46;;;;;;;18.33;5.00;;;8.40;1.00;;;;;;7384342;19;20613;-61
2022/02/18 01:02:16;;;;;;;22.80;3.53;;;8.30;1.00;;;;;;7365545;19;20362;-61
2022/02/18 01:04:45;;;;;;;17.92;4.03;;;8.30;1.00;;;;;;7361823;19;20109;-61
2022/02/18 01:07:15;;;;;;;20.30;3.92;;;8.40;1.00;;;;;;7367115;19;20366;-61
2022/02/18 01:09:48;;;;;;;28.02;4.40;;;8.30;1.00;;;;;;7363075;19;20466;-61
2022/02/18 01:12:17;;;;;;;17.02;4.53;;;8.30;1.00;;;;;;7369126;19;20016;-61
2022/02/18 01:14:48;;;;;;;17.95;4.05;;;8.30;1.00;;;;;;7384116;19;20011;-61
2022/02/18 01:17:18;;;;;;;17.83;3.33;;;8.30;1.00;;;;;;7366953;19;20006;-61
2022/02/18 01:19:48;;;;;;;21.58;4.25;;;8.40;1.00;;;;;;7363603;19;20010;-60
2022/02/18 01:22:17;;;;;;;19.88;4.05;;;8.40;1.00;;;;;;7367407;19;20014;-61
2022/02/18 01:24:50;;;;;;;23.50;4.22;;;8.40;1.00;;;;;;7361959;19;20006;-61
2022/02/18 01:27:20;;;;;;;23.27;4.30;;;8.40;1.00;;;;;;7366528;19;20029;-61
2022/02/18 01:29:50;;;;;;;22.27;4.00;;;8.40;1.00;;;;;;7381918;19;20721;-61
2022/02/18 01:32:20;;;;;;;16.98;3.25;;;8.50;1.00;;;;;;7367675;19;20003;-61
2022/02/18 01:34:50;;;;;;;17.95;3.75;;;8.40;1.00;;;;;;7364588;19;20007;-61
2022/02/18 01:37:20;;;;;;;17.80;3.25;;;8.50;1.00;;;;;;7365688;19;20035;-61
2022/02/18 01:39:52;;;;;;;18.70;4.05;;;8.50;1.00;;;;;;7359248;19;20082;-61
2022/02/18 01:42:22;;;;;;;20.55;3.92;;;8.50;1.00;;;;;;7367320;19;20015;-61
2022/02/18 01:44:53;;;;;;;23.10;4.97;;;8.50;1.00;;;;;;7383166;19;20100;-62
2022/02/18 01:47:25;;;;;;;16.70;4.53;;;8.50;1.00;;;;;;7386596;19;20082;-61
2022/02/18 01:49:58;;;;;;;16.92;4.68;;;8.50;1.00;;;;;;7358888;19;20014;-61
2022/02/18 01:52:30;;;;;;;16.92;3.13;;;8.50;1.00;;;;;;7362681;19;20074;-61
2022/02/18 01:55:07;;;;;;;17.83;3.70;;;8.50;1.00;;;;;;7366417;19;20015;-61
2022/02/18 01:57:37;;;;;;;17.27;3.78;;;8.50;1.00;;;;;;7365516;19;20015;-62
2022/02/18 02:00:09;;;;;;;15.35;3.30;;;8.50;1.00;;;;;;7359320;19;20026;-61
2022/02/18 02:02:39;;;;;;;19.42;3.75;;;8.50;1.00;;;;;;7385453;19;20074;-61
2022/02/18 02:05:11;;;;;;;14.50;3.38;;;8.50;1.00;;;;;;7363115;19;20490;-61
2022/02/18 02:07:43;;;;;;;22.63;4.20;;;8.50;1.00;;;;;;7366803;19;20025;-61
2022/02/18 02:10:16;;;;;;;12.57;3.63;;;8.50;1.00;;;;;;7360667;19;20018;-61
2022/02/18 02:12:50;;;;;;;16.92;4.20;;;8.50;1.00;;;;;;7364163;19;20014;-61
2022/02/18 02:15:22;;;;;;;15.73;3.25;;;8.50;1.00;;;;;;7363201;19;20751;-61
2022/02/18 02:17:52;;;;;;;15.45;3.47;;;8.60;1.00;;;;;;7386450;19;20082;-64
2022/02/18 02:20:23;;;;;;;16.55;3.92;;;8.50;1.00;;;;;;7380877;19;20021;-61
2022/02/18 02:22:55;;;;;;;19.92;3.65;;;8.50;1.00;;;;;;7361611;19;20014;-60
2022/02/18 02:25:35;;;;;;;17.35;3.17;;;8.50;1.00;;;;;;7363394;19;20082;-60
2022/02/18 02:28:05;;;;;;;17.63;3.22;;;8.60;1.00;;;;;;7364585;19;20023;-60
2022/02/18 02:30:35;;;;;;;16.65;3.58;;;8.50;1.00;;;;;;7361432;19;20010;-61
2022/02/18 02:33:05;;;;;;;14.30;3.55;;;8.40;1.00;;;;;;7364822;19;20014;-60
2022/02/18 02:35:35;;;;;;;13.50;3.13;;;8.30;1.00;;;;;;7384042;19;20018;-61
2022/02/18 02:38:07;;;;;;;18.88;3.70;;;8.30;1.00;;;;;;7360205;19;20022;-60
2022/02/18 02:40:37;;;;;;;16.42;4.50;;;8.20;1.00;;;;;;7360243;19;20010;-61
2022/02/18 02:43:07;;;;;;;17.13;4.05;;;8.10;1.00;;;;;;7364838;19;20102;-61
2022/02/18 02:45:37;;;;;;;19.15;3.42;;;8.10;1.00;;;;;;7362223;19;20021;-61
2022/02/18 02:48:08;;;;;;;14.02;3.25;;;8.10;1.00;;;;;;7363597;19;20077;-61
2022/02/18 02:50:38;;;;;;;21.52;4.10;;;8.10;1.00;;;;;;7381256;19;20356;-61
2022/02/18 02:53:10;;;;;;;13.05;3.38;;;8.00;1.00;;;;;;7363917;19;20011;-60
2022/02/18 02:55:40;;;;;;;17.42;2.97;;;8.00;1.00;;;;;;7362108;19;20474;-60
2022/02/18 02:58:10;;;;;;;14.40;3.13;;;8.00;1.00;;;;;;7362280;19;20432;-60
2022/02/18 03:00:40;;;;;;;17.83;3.88;;;8.00;1.00;;;;;;7359460;19;20021;-61
2022/02/18 03:03:10;;;;;;;18.98;3.38;;;8.00;1.00;;;;;;7363784;19;20006;-60
2022/02/18 03:05:40;;;;;;;30.23;3.47;;;8.00;1.00;;;;;;7384664;19;20022;-60
2022/02/18 03:08:12;;;;;;;12.43;4.03;;;8.00;1.00;;;;;;7361735;19;20470;-60
2022/02/18 03:11:14;;;;;;;17.40;3.70;;;8.00;1.00;;;;;;7357861;19;20018;-60
2022/02/18 03:13:32;;;;;;;12.13;2.85;;;8.00;1.00;;;;;;7362266;19;20021;-60
2022/02/18 03:16:02;;;;;;;17.30;3.28;;;8.00;1.00;;;;;;7363142;19;20478;-60
2022/02/18 03:18:32;;;;;;;14.68;2.88;;;7.90;1.00;;;;;;7363451;19;20040;-61
2022/02/18 03:21:02;;;;;;;10.32;2.97;;;7.90;1.00;;;;;;7356854;19;20015;-61
2022/02/18 03:23:34;;;;;;;17.98;2.95;;;7.80;1.00;;;;;;7383053;19;20355;-61
2022/02/18 03:26:09;;;;;;;15.30;2.72;;;7.70;1.00;;;;;;7361642;19;20017;-61
2022/02/18 03:28:39;;;;;;;12.02;3.08;;;7.60;1.00;;;;;;7362867;19;20007;-60
2022/02/18 03:31:11;;;;;;;20.58;3.65;;;7.60;1.00;;;;;;7357863;19;20074;-61
2022/02/18 03:33:41;;;;;;;17.20;2.83;;;7.50;1.00;;;;;;7361842;19;20680;-61
2022/02/18 03:36:11;;;;;;;11.93;2.90;;;7.40;1.00;;;;;;7361581;19;20088;-60
2022/02/18 03:38:44;;;;;;;17.70;3.33;;;7.40;1.00;;;;;;7384945;19;20028;-60
2022/02/18 03:41:14;;;;;;;12.73;2.97;;;7.30;1.00;;;;;;7359023;19;20007;-60
2022/02/18 03:43:44;;;;;;;10.90;2.92;;;7.30;1.00;;;;;;7361344;19;20110;-60
2022/02/18 03:46:13;;;;;;;16.30;3.00;;;7.30;1.00;;;;;;7361114;19;20013;-60
2022/02/18 03:48:43;;;;;;;18.60;3.72;;;7.30;1.00;;;;;;7361974;19;20014;-60
2022/02/18 03:51:13;;;;;;;20.95;3.35;;;7.20;1.00;;;;;;7358020;19;20181;-61
2022/02/18 03:53:49;;;;;;;16.95;3.28;;;7.20;1.00;;;;;;7382228;19;20032;-60
2022/02/18 03:56:19;;;;;;;13.00;2.63;;;7.20;1.00;;;;;;7361601;19;20011;-60
2022/02/18 03:58:50;;;;;;;18.23;2.95;;;7.10;1.00;;;;;;7359294;19;20488;-60
2022/02/18 04:01:20;;;;;;;10.57;2.67;;;7.10;1.00;;;;;;7362170;19;21064;-60
2022/02/18 04:03:49;;;;;;;16.13;3.45;;;7.10;1.00;;;;;;7356769;19;20007;-61
2022/02/18 04:06:19;;;;;;;17.60;3.20;;;7.20;1.00;;;;;;7360388;19;20105;-60
2022/02/18 04:08:53;;;;;;;16.58;4.07;;;7.10;1.00;;;;;;7381411;19;20022;-61
2022/02/18 04:11:23;;;;;;;22.08;3.80;;;7.10;1.00;;;;;;7359800;19;20015;-60
2022/02/18 04:13:53;;;;;;;17.50;3.58;;;7.30;1.00;;;;;;7359456;19;20486;-60
2022/02/18 04:16:23;;;;;;;16.08;3.30;;;7.20;1.00;;;;;;7363125;19;20006;-60
2022/02/18 04:18:56;;;;;;;11.77;3.22;;;7.30;1.00;;;;;;7357608;19;20438;-60
2022/02/18 04:21:26;;;;;;;11.13;3.13;;;7.30;1.00;;;;;;7359274;19;20059;-60
2022/02/18 04:23:59;;;;;;;16.77;3.50;;;7.40;1.00;;;;;;7359050;19;20029;-61
2022/02/18 04:26:29;;;;;;;13.27;3.28;;;7.40;1.00;;;;;;7384949;19;20039;-61
2022/02/18 04:28:59;;;;;;;20.65;5.50;;;7.40;1.00;;;;;;7356560;19;20022;-60
2022/02/18 04:31:29;;;;;;;24.85;9.30;;;7.40;1.00;;;;;;7360069;19;20011;-60
2022/02/18 04:33:58;;;;;;;20.58;6.82;;;7.40;1.00;;;;;;7357859;19;20038;-60
2022/02/18 04:36:28;;;;;;;20.20;5.57;;;7.30;1.00;;;;;;7362907;19;20344;-61
2022/02/18 04:39:01;;;;;;;22.17;5.07;;;7.40;1.00;;;;;;7357227;19;20014;-61
2022/02/18 04:41:30;;;;;;;16.40;3.67;;;7.50;1.00;;;;;;7381446;19;20018;-60
2022/02/18 04:44:00;;;;;;;21.35;3.80;;;7.60;1.00;;;;;;7356669;19;20010;-60
2022/02/18 04:46:30;;;;;;;12.85;3.45;;;7.60;1.00;;;;;;7361588;19;20014;-60
2022/02/18 04:49:01;;;;;;;13.40;2.80;;;7.60;1.00;;;;;;7358157;19;20018;-61
2022/02/18 04:51:31;;;;;;;13.65;3.38;;;7.60;1.00;;;;;;7359857;19;20126;-60
2022/02/18 04:54:03;;;;;;;11.65;2.60;;;7.60;1.00;;;;;;7356535;19;20501;-60
2022/02/18 04:56:34;;;;;;;9.90;2.45;;;7.70;1.00;;;;;;7383266;19;20665;-60
2022/02/18 04:59:04;;;;;;;15.30;3.03;;;7.70;1.00;;;;;;7355275;19;20020;-59
2022/02/18 05:01:34;;;;;;;10.68;2.70;;;7.70;1.00;;;;;;7363687;19;20077;-60
2022/02/18 05:04:04;;;;;;;17.42;2.92;;;7.70;1.00;;;;;;7362710;19;20609;-60
2022/02/18 05:06:34;;;;;;;10.65;2.95;;;7.70;1.00;;;;;;7368543;19;20878;-60
2022/02/18 05:09:06;;;;;;;14.10;3.40;;;7.70;1.00;;;;;;7362049;19;20116;-60
2022/02/18 05:11:36;;;;;;;17.15;3.25;;;7.70;1.00;;;;;;7390118;19;20090;-61
2022/02/18 05:14:06;;;;;;;10.63;3.42;;;7.80;1.00;;;;;;7361785;19;20106;-61
2022/02/18 05:16:36;;;;;;;13.23;3.42;;;7.80;1.00;;;;;;7366458;19;20014;-61
2022/02/18 05:19:09;;;;;;;12.07;2.75;;;7.80;1.00;;;;;;7360506;19;20034;-61
2022/02/18 05:21:39;;;;;;;10.73;3.37;;;7.90;1.00;;;;;;7367438;19;20742;-61
2022/02/18 05:24:12;;;;;;;17.80;3.28;;;7.90;1.00;;;;;;7362516;19;20564;-61
2022/02/18 05:26:45;;;;;;;13.50;3.42;;;7.90;1.00;;;;;;7387540;19;20542;-59
2022/02/18 05:29:15;;;;;;;15.10;3.65;;;7.90;1.00;;;;;;7359404;19;20363;-59
2022/02/18 05:31:45;;;;;;;11.07;3.42;;;7.90;1.00;;;;;;7366928;19;20090;-61
2022/02/18 05:34:15;;;;;;;12.30;3.10;;;8.00;1.00;;;;;;7365043;19;20616;-62
2022/02/18 05:36:45;;;;;;;11.63;2.92;;;8.00;1.00;;;;;;7366019;19;20503;-60
2022/02/18 05:39:17;;;;;;;14.43;4.25;;;8.00;1.00;;;;;;7360165;19;20045;-61
2022/02/18 05:41:47;;;;;;;16.83;3.35;;;8.10;1.00;;;;;;7388315;19;20074;-60
2022/02/18 05:44:17;;;;;;;16.60;3.33;;;8.10;1.00;;;;;;7361995;19;20010;-60
2022/02/18 05:46:47;;;;;;;15.57;2.92;;;8.10;1.00;;;;;;7366902;19;20095;-60
2022/02/18 05:49:17;;;;;;;16.65;3.67;;;8.10;1.00;;;;;;7360058;19;20495;-60
2022/02/18 05:51:47;;;;;;;13.93;3.70;;;8.20;1.00;;;;;;7365154;19;20003;-60
2022/02/18 05:54:19;;;;;;;12.13;2.88;;;8.20;1.00;;;;;;7364465;19;20949;-59
2022/02/18 05:56:50;;;;;;;17.70;3.40;;;8.20;1.00;;;;;;7388913;19;20023;-59
2022/02/18 05:59:20;;;;;;;17.30;2.90;;;8.20;1.00;;;;;;7359411;19;20006;-60
2022/02/18 06:01:50;;;;;;;14.55;3.50;;;8.20;1.00;;;;;;7363567;19;20057;-60
2022/02/18 06:04:20;;;;;;;14.00;3.80;;;8.30;1.00;;;;;;7361952;19;20006;-61
2022/02/18 06:06:50;;;;;;;13.30;3.80;;;8.30;1.00;;;;;;7368428;19;20070;-61
2022/02/18 06:09:23;;;;;;;15.60;3.22;;;8.30;1.00;;;;;;7359033;19;20102;-60
2022/02/18 06:11:52;;;;;;;13.57;3.42;;;8.30;1.00;;;;;;7377501;19;20078;-61
2022/02/18 06:14:22;;;;;;;18.40;3.40;;;8.40;1.00;;;;;;7382213;19;20021;-60
2022/02/18 06:16:52;;;;;;;18.00;3.45;;;8.40;1.00;;;;;;7365907;19;20019;-61
2022/02/18 06:19:22;;;;;;;16.45;3.42;;;8.40;1.00;;;;;;7359377;19;20442;-61
2022/02/18 06:21:52;;;;;;;13.90;2.90;;;8.50;1.00;;;;;;7363229;19;20061;-60
2022/02/18 06:24:24;;;;;;;14.73;3.47;;;8.40;1.00;;;;;;7360774;19;20570;-60
2022/02/18 06:26:54;;;;;;;17.90;3.53;;;8.40;1.00;;;;;;7365534;19;20017;-62
2022/02/18 06:29:24;;;;;;;16.52;3.72;;;8.40;1.00;;;;;;7380147;19;20018;-60
2022/02/18 06:31:54;;;;;;;10.13;3.08;;;8.40;1.00;;;;;;7363462;19;20006;-62
2022/02/18 06:34:24;;;;;;;20.55;4.38;;;8.50;1.00;;;;;;7359507;19;20086;-60
2022/02/18 06:36:54;;;;;;;19.90;3.58;;;8.50;1.00;;;;;;7364202;19;20010;-60
2022/02/18 06:39:26;;;;;;;14.90;3.33;;;8.50;1.00;;;;;;7359737;19;20118;-60
2022/02/18 06:41:56;;;;;;;12.73;3.45;;;8.60;1.00;;;;;;7364154;19;20010;-61
2022/02/18 06:44:26;;;;;;;19.52;4.60;;;8.60;1.00;;;;;;7380854;19;20015;-61
2022/02/18 06:46:56;;;;;;;15.55;3.47;;;8.60;1.00;;;;;;7363649;19;20036;-61
2022/02/18 06:49:26;;;;;;;15.05;3.28;;;8.60;1.00;;;;;;7358542;19;20010;-60
2022/02/18 06:51:58;;;;;;;14.50;3.45;;;8.60;1.00;;;;;;7365019;19;20036;-60
2022/02/18 06:54:32;;;;;;;21.10;5.85;;;8.70;1.00;;;;;;7359325;19;20039;-60
2022/02/18 06:57:08;;;;;;;24.23;8.10;;;8.70;1.00;;;;;;7362797;19;20010;-60
2022/02/18 06:59:37;;;;;;;22.10;7.90;;;8.80;1.00;;;;;;7379131;19;20367;-60
2022/02/18 07:02:07;;;;;;;20.88;5.07;;;8.70;1.00;;;;;;7363122;19;20010;-61
2022/02/18 07:04:38;;;;;;;19.75;5.70;;;8.80;1.00;;;;;;7360509;19;20003;-62
2022/02/18 07:07:08;;;;;;;17.23;4.20;;;8.80;1.00;;;;;;7363898;19;20022;-61
2022/02/18 07:09:40;;;;;;;11.48;3.30;;;8.80;1.00;;;;;;7356698;19;20010;-61
2022/02/18 07:12:11;;;;;;;15.00;4.30;;;8.90;1.00;;;;;;7363610;19;20014;-61
2022/02/18 07:14:41;;;;;;;20.48;5.43;;;8.90;1.00;;;;;;7382289;19;20022;-60
2022/02/18 07:17:12;;;;;;;19.60;3.85;;;9.00;1.00;;;;;;7362403;19;20002;-61
2022/02/18 07:19:44;;;;;;;17.35;3.60;;;9.00;1.00;;;;;;7355360;19;20006;-61
2022/02/18 07:22:14;;;;;;;19.90;4.10;;;9.10;1.00;;;;;;7362385;19;20531;-62
2022/02/18 07:24:47;;;;;;;17.33;3.63;;;9.20;1.00;;;;;;7357363;19;20086;-60
2022/02/18 07:27:17;;;;;;;14.88;3.53;;;9.20;1.00;;;;;;7362370;19;20021;-60
2022/02/18 07:29:47;;;;;;;16.75;3.33;;;9.20;1.00;;;;;;7377680;19;20368;-60
2022/02/18 07:32:16;;;;;;;16.52;4.15;;;9.30;1.00;;;;;;7361228;19;20013;-60
2022/02/18 07:34:46;;;;;;;13.50;3.20;;;9.30;1.00;;;;;;7359188;19;20085;-60
2022/02/18 07:37:16;;;;;;;12.60;4.07;;;9.30;1.00;;;;;;7363565;19;20058;-60
2022/02/18 07:39:49;;;;;;;17.00;3.58;;;9.40;1.00;;;;;;7356684;19;20566;-60
2022/02/18 07:42:19;;;;;;;17.40;3.63;;;9.30;1.00;;;;;;7360541;19;20017;-60
2022/02/18 07:44:48;;;;;;;15.60;3.47;;;9.40;1.00;;;;;;7380666;19;20050;-60
2022/02/18 07:47:19;;;;;;;14.23;3.33;;;9.40;1.00;;;;;;7361462;19;20023;-59
2022/02/18 07:49:51;;;;;;;13.02;3.10;;;9.50;1.00;;;;;;7356672;19;20013;-60
2022/02/18 07:52:23;;;;;;;11.68;3.08;;;9.50;1.00;;;;;;7359789;19;20014;-60
2022/02/18 07:54:56;;;;;;;16.70;3.78;;;9.50;1.00;;;;;;7360404;19;20007;-59
2022/02/18 07:57:27;;;;;;;9.25;2.78;;;9.60;1.00;;;;;;7362352;19;20019;-61
2022/02/18 07:59:57;;;;;;;6.65;2.38;;;9.70;1.00;;;;;;7356117;19;20448;-61
2022/02/18 08:02:28;;;;;;;12.95;2.92;;;9.80;1.00;;;;;;7379262;19;20079;-61
2022/02/18 08:04:58;;;;;;;16.80;3.63;;;9.90;1.00;;;;;;7357839;19;20479;-60
2022/02/18 08:07:28;;;;;;;10.95;2.70;;;9.90;1.00;;;;;;7361905;19;20526;-61
2022/02/18 08:10:00;;;;;;;9.82;2.28;;;10.00;1.00;;;;;;7356679;19;20092;-60
2022/02/18 08:12:30;;;;;;;11.38;3.03;;;10.10;1.00;;;;;;7360116;19;20559;-61
2022/02/18 08:15:00;;;;;;;8.02;2.78;;;10.30;1.00;;;;;;7357888;19;20041;-61
2022/02/18 08:17:36;;;;;;;13.20;2.85;;;10.40;1.00;;;;;;7381861;19;20011;-60
2022/02/18 08:20:07;;;;;;;12.85;2.45;;;10.40;1.00;;;;;;7356906;19;20015;-59
2022/02/18 08:22:38;;;;;;;14.80;2.35;;;10.40;1.00;;;;;;7359854;19;20007;-60
2022/02/18 08:25:13;;;;;;;15.80;2.50;;;10.40;1.00;;;;;;7357335;19;20090;-60
2022/02/18 08:27:44;;;;;;;11.63;2.17;;;10.40;1.00;;;;;;7360591;19;20019;-60
2022/02/18 08:30:15;;;;;;;11.60;2.83;;;10.50;1.00;;;;;;7357077;19;20476;-60
2022/02/18 08:32:45;;;;;;;18.52;7.57;;;10.50;1.00;;;;;;7382280;19;20181;-60
2022/02/18 08:35:15;;;;;;;9.48;2.35;;;10.70;1.00;;;;;;7360356;19;20038;-61
2022/02/18 08:37:45;;;;;;;11.60;2.22;;;10.70;1.00;;;;;;7366002;19;20014;-60
2022/02/18 08:40:18;;;;;;;11.18;3.10;;;10.70;1.00;;;;;;7362374;19;20013;-61
2022/02/18 08:42:48;;;;;;;11.35;2.60;;;10.70;1.00;;;;;;7365880;19;20475;-61
2022/02/18 08:45:18;;;;;;;10.25;2.25;;;10.80;1.00;;;;;;7366912;19;20500;-61
2022/02/18 08:47:48;;;;;;;10.25;2.30;;;10.80;1.00;;;;;;7386198;19;20471;-60
2022/02/18 08:50:18;;;;;;;6.85;1.92;;;10.80;1.00;;;;;;7357134;19;20592;-61
2022/02/18 08:52:48;;;;;;;9.85;2.05;;;10.90;1.00;;;;;;7362216;19;20106;-59
2022/02/18 08:55:21;;;;;;;4.40;1.35;;;11.10;1.00;;;;;;7364622;19;20014;-60
2022/02/18 08:57:52;;;;;;;10.80;1.80;;;11.20;1.00;;;;;;7366775;19;20003;-60
2022/02/18 09:00:22;;;;;;;5.43;1.88;;;11.30;1.00;;;;;;7359795;19;20109;-60
2022/02/18 09:02:52;;;;;;;5.82;1.77;;;11.30;1.00;;;;;;7386129;19;20373;-60
2022/02/18 09:05:24;;;;;;;7.28;1.27;;;11.40;1.00;;;;;;7364835;19;20082;-61
2022/02/18 09:07:54;;;;;;;5.20;1.40;;;11.50;1.00;;;;;;7366685;19;21302;-60
2022/02/18 09:10:26;;;;;;;7.40;1.50;;;11.50;1.00;;;;;;7361455;19;20021;-60
2022/02/18 09:12:56;;;;;;;4.68;1.25;;;11.50;1.00;;;;;;7364220;19;20074;-61
2022/02/18 09:15:26;;;;;;;4.97;1.60;;;11.60;1.00;;;;;;7363807;19;20040;-60
2022/02/18 09:17:57;;;;;;;6.07;1.00;;;11.70;1.00;;;;;;7366338;19;20026;-61
2022/02/18 09:20:27;;;;;;;7.32;1.20;;;11.70;1.00;;;;;;7381074;19;20018;-60
2022/02/18 09:22:57;;;;;;;4.20;1.23;;;11.70;1.00;;;;;;7361414;19;20074;-60
2022/02/18 09:25:30;;;;;;;3.78;1.20;;;11.80;1.00;;;;;;7359975;19;20402;-60
2022/02/18 09:28:00;;;;;;;5.40;1.10;;;11.80;1.00;;;;;;7366973;19;20079;-60
2022/02/18 09:30:30;;;;;;;5.97;1.20;;;11.90;1.00;;;;;;7361009;19;20504;-60
2022/02/18 09:33:18;;;;;;;7.03;1.45;;;12.10;1.00;;;;;;7365264;19;20021;-60
2022/02/18 09:35:48;;;;;;;4.72;1.27;;;12.10;1.00;;;;;;7385535;19;20003;-59
2022/02/18 09:38:19;;;;;;;3.00;0.93;;;12.20;1.00;;;;;;7365039;19;20030;-59
2022/02/18 09:40:52;;;;;;;7.32;1.00;;;12.40;1.00;;;;;;7363269;19;20040;-60
2022/02/18 09:43:24;;;;;;;6.70;1.10;;;12.60;1.00;;;;;;7364586;19;20472;-60
2022/02/18 09:45:54;;;;;;;3.15;0.90;;;12.60;1.00;;;;;;7362408;19;20007;-61
2022/02/18 09:48:26;;;;;;;6.05;1.52;;;12.70;1.00;;;;;;7364736;19;20747;-60
2022/02/18 09:50:56;;;;;;;2.35;1.10;;;12.90;1.00;;;;;;7361046;19;20044;-60
2022/02/18 09:53:26;;;;;;;5.72;1.45;;;13.00;1.00;;;;;;7386833;19;20074;-60
2022/02/18 09:56:00;;;;;;;5.15;1.08;;;13.20;1.00;;;;;;7363108;19;20019;-60
2022/02/18 09:58:30;;;;;;;2.53;0.90;;;13.10;1.00;;;;;;7364589;19;20022;-60
2022/02/18 10:01:03;;;;;;;4.00;1.23;;;13.20;1.00;;;;;;7361332;19;20280;-60
2022/02/18 10:03:34;;;;;;;6.53;1.33;;;13.30;1.00;;;;;;7362547;19;20010;-60
2022/02/18 10:06:04;;;;;;;5.95;1.48;;;13.20;1.00;;;;;;7363910;19;20082;-60
2022/02/18 10:08:34;;;;;;;5.28;1.10;;;13.30;1.00;;;;;;7383793;19;20134;-61
2022/02/18 10:11:08;;;;;;;3.90;1.65;;;13.40;1.00;;;;;;7358961;19;20011;-60
2022/02/18 10:13:40;;;;;;;7.20;2.88;;;13.40;1.00;;;;;;7362852;19;20483;-61
2022/02/18 10:16:15;;;;;;;6.13;2.30;;;13.60;1.00;;;;;;7364772;19;20020;-60
2022/02/18 10:18:53;;;;;;;3.53;1.30;;;13.70;1.00;;;;;;7364883;19;20546;-60
2022/02/18 10:21:24;;;;;;;3.30;0.98;;;13.90;1.00;;;;;;7361556;19;20027;-60
2022/02/18 10:24:07;;;;;;;2.63;1.10;;;14.00;1.00;;;;;;7358646;19;20018;-64
2022/02/18 10:26:41;;;;;;;3.42;0.93;;;14.30;1.00;;;;;;7384286;19;20045;-62
2022/02/18 10:29:19;;;;;;;3.55;1.10;;;14.60;1.00;;;;;;7359292;19;20015;-62
2022/02/18 10:32:10;;;;;;;1.70;0.95;;;14.50;1.00;;;;;;7365035;19;20461;-61
2022/02/18 10:34:54;;;;;;;5.57;1.10;;;14.60;1.00;;;;;;7360147;19;20023;-61
2022/02/18 10:37:27;;;;;;;4.60;1.20;;;15.00;1.00;;;;;;7363832;19;20565;-61
2022/02/18 10:40:10;;;;;;;1.67;0.90;;;15.40;1.00;;;;;;7357021;19;20007;-60
2022/02/18 10:42:43;;;;;;;3.20;1.17;;;15.60;1.00;;;;;;7361072;19;20007;-60
2022/02/18 10:45:16;;;;;;;5.13;1.65;;;15.60;1.00;;;;;;7363649;19;20325;-61
2022/02/18 10:47:48;;;;;;;5.70;1.30;;;15.50;1.00;;;;;;7385640;19;20014;-61
2022/02/18 10:50:20;;;;;;;4.53;1.10;;;15.40;1.00;;;;;;7355971;19;20035;-60
2022/02/18 10:53:13;;;;;;;3.95;1.02;;;15.40;1.00;;;;;;7359216;19;20010;-60
2022/02/18 10:55:54;;;;;;;3.70;1.08;;;15.50;1.00;;;;;;7360855;19;20105;-61
2022/02/18 10:58:29;;;;;;;1.60;0.70;;;15.80;1.00;;;;;;7361853;19;20757;-62
2022/02/18 11:01:06;;;;;;;5.07;1.08;;;15.80;1.00;;;;;;7359434;19;20208;-60
2022/02/18 11:03:38;;;;;;;2.53;0.73;;;15.80;1.00;;;;;;7360823;19;20086;-60
2022/02/18 11:06:17;;;;;;;4.57;0.95;;;15.90;1.00;;;;;;7362803;19;20086;-60
2022/02/18 11:08:58;;;;;;;3.15;0.75;;;15.90;1.00;;;;;;7383091;19;20270;-60
2022/02/18 11:11:33;;;;;;;4.50;2.22;;;15.90;1.00;;;;;;7362977;19;20018;-60
2022/02/18 11:14:08;;;;;;;6.45;0.77;;;16.00;1.00;;;;;;7359844;19;20129;-60
2022/02/18 11:16:40;;;;;;;3.88;0.70;;;16.00;1.00;;;;;;7363850;19;20010;-60
2022/02/18 11:19:10;;;;;;;6.65;0.80;;;16.00;1.00;;;;;;7358669;19;20090;-61
2022/02/18 11:22:01;;;;;;;6.15;0.93;;;16.10;1.00;;;;;;7362926;19;20017;-61
2022/02/18 11:24:31;;;;;;;2.75;0.70;;;15.90;1.00;;;;;;7357530;19;20010;-61
2022/02/18 11:27:03;;;;;;;4.03;0.95;;;15.90;1.00;;;;;;7360376;19;20018;-61
2022/02/18 11:29:38;;;;;;;3.28;1.02;;;15.80;1.00;;;;;;7377886;19;20354;-61
2022/02/18 11:32:15;;;;;;;;;;;15.90;1.00;;;;;;7362679;19;20014;-61
2022/02/18 11:35:01;;;;;;;4.45;0.70;;;15.70;1.00;;;;;;7357568;19;20304;-60
2022/02/18 11:38:13;;;;;;;2.92;0.80;;;15.70;1.00;;;;;;7362438;19;20014;-60
2022/02/18 11:40:55;;;;;;;5.18;1.02;;;15.50;1.00;;;;;;7354799;19;20117;-60
2022/02/18 11:43:29;;;;;;;2.28;0.80;;;15.40;1.00;;;;;;7361078;19;20011;-59
2022/02/18 11:46:03;;;;;;;;;;;15.40;1.00;;;;;;7358651;19;20086;-60
2022/02/18 11:48:46;;;;;;;3.65;0.88;;;15.40;1.00;;;;;;7360688;19;20334;-61
2022/02/18 11:51:21;;;;;;;5.32;0.75;;;15.40;1.00;;;;;;7358789;19;20086;-59
2022/02/18 11:53:53;;;;;;;2.78;1.08;;;15.40;1.00;;;;;;7379164;19;20475;-59
2022/02/18 11:56:42;;;;;;;2.47;0.95;;;15.40;1.00;;;;;;7363321;19;20021;-60
2022/02/18 11:59:12;;;;;;;3.72;0.85;;;15.40;1.00;;;;;;7357223;19;20010;-60
2022/02/18 12:02:09;;;;;;;1.85;0.60;;;15.40;1.00;;;;;;7360788;19;20027;-61
2022/02/18 12:04:41;;;;;;;3.90;0.80;;;15.50;1.00;;;;;;7355727;19;20011;-60
2022/02/18 12:07:39;;;;;;;4.88;1.08;;;15.60;1.00;;;;;;7360104;19;20768;-60
2022/02/18 12:10:17;;;;;;;4.03;0.90;;;15.70;1.00;;;;;;7354552;19;20014;-61
2022/02/18 12:12:48;;;;;;;3.60;1.00;;;15.70;1.00;;;;;;7367875;19;20078;-60
2022/02/18 12:15:22;;;;;;;2.92;0.77;;;15.70;1.00;;;;;;7364427;19;20010;-60
2022/02/18 12:18:02;;;;;;;2.38;0.93;;;15.80;1.00;;;;;;7388580;19;20044;-60
2022/02/18 12:20:34;;;;;;;8.95;1.13;;;15.80;1.00;;;;;;7362577;19;20067;-60
2022/02/18 12:23:23;;;;;;;2.67;0.70;;;15.80;1.00;;;;;;7364080;19;20498;-61
2022/02/18 12:26:14;;;;;;;3.80;0.80;;;15.90;1.00;;;;;;7366184;19;20086;-61
2022/02/18 12:28:44;;;;;;;3.85;0.90;;;15.80;1.00;;;;;;7367342;19;20448;-61
2022/02/18 12:31:14;;;;;;;4.57;1.00;;;15.80;1.00;;;;;;7365161;19;20087;-61
2022/02/18 12:33:48;;;;;;;3.25;0.73;;;15.80;1.00;;;;;;7364644;19;20052;-60
2022/02/18 12:36:19;;;;;;;4.05;0.90;;;15.70;1.00;;;;;;7367718;19;20034;-61
2022/02/18 12:38:51;;;;;;;3.75;0.98;;;15.70;1.00;;;;;;7387917;19;20056;-61
2022/02/18 12:41:22;;;;;;;2.90;0.75;;;15.80;1.00;;;;;;7367667;19;20046;-60
2022/02/18 12:43:52;;;;;;;2.28;0.70;;;15.70;1.00;;;;;;7361088;19;20003;-61
2022/02/18 12:46:22;;;;;;;2.40;0.70;;;15.80;1.00;;;;;;7366506;19;20114;-61
2022/02/18 12:48:55;;;;;;;2.47;0.65;;;15.80;1.00;;;;;;7364557;19;20006;-60
2022/02/18 12:51:26;;;;;;;7.40;0.60;;;15.80;1.00;;;;;;7364599;19;20541;-60
2022/02/18 12:54:00;;;;;;;4.10;0.60;;;15.80;1.00;;;;;;7361107;19;20014;-61
2022/02/18 12:56:32;;;;;;;2.33;0.70;;;15.80;1.00;;;;;;7387688;19;20036;-61
2022/02/18 12:59:10;;;;;;;1.90;0.70;;;15.70;1.00;;;;;;7360242;19;20010;-61
2022/02/18 13:01:41;;;;;;;1.95;0.55;;;15.70;1.00;;;;;;7367612;19;20027;-62
2022/02/18 13:04:23;;;;;;;4.57;0.88;;;15.70;1.00;;;;;;7364259;19;20010;-60
2022/02/18 13:06:55;;;;;;;2.42;0.90;;;15.70;1.00;;;;;;7366840;19;20395;-59
2022/02/18 13:09:28;;;;;;;3.13;0.90;;;15.60;1.00;;;;;;7361898;19;20010;-60
2022/02/18 13:11:58;;;;;;;3.75;0.80;;;15.60;1.00;;;;;;7366068;19;20014;-60
2022/02/18 13:14:27;;;;;;;2.72;0.80;;;15.60;1.00;;;;;;7383987;19;20018;-60
2022/02/18 13:16:57;;;;;;;7.45;0.73;;;15.60;1.00;;;;;;7368744;19;20018;-59
2022/02/18 13:19:44;;;;;;;3.15;1.08;;;15.60;1.00;;;;;;7362242;19;20006;-60
2022/02/18 13:22:15;;;;;;;1.77;0.80;;;15.60;1.00;;;;;;7364729;19;20031;-61
2022/02/18 13:24:45;;;;;;;6.22;1.23;;;15.70;1.00;;;;;;7361981;19;20015;-60